KSAT/SAT METAR and TAF weather

Enter ICAO airport designator
Station Type Date Time Source
KSAT METAR 2018/10/19 15:51 UTC NOAA

KSAT 191551Z 36005KT 10SM OVC007 17/16 A3019 RMK AO2 RAE31 SLP209 P0000 T01720161


Station Type Date Time Source
KSAT Decoded METAR 2018/10/19 15:51 UTC NOAA

SAN ANTONIO INTERNATIONAL AIRPORT , TX, United States (KSAT) 29-32N 098-28W 243M
Oct 19, 2018 - 11:51 AM EDT / 2018.10.19 1551 UTC
Wind: from the N (360 degrees) at 6 MPH (5 KT):0
Visibility: 10 mile(s):0
Sky conditions: overcast
Precipitation last hour: A trace
Temperature: 63.0 F (17.2 C)
Dew Point: 61.0 F (16.1 C)
Relative Humidity: 93%
Pressure (altimeter): 30.19 in. Hg (1022 hPa)
ob: KSAT 191551Z 36005KT 10SM OVC007 17/16 A3019 RMK AO2 RAE31 SLP209 P0000 T01720161
cycle: 16

Station Type Date Time Source
KSAT TAF 2018/10/19 16:58 UTC NOAA

TAF
AMD KSAT 191558Z 1916/2018 01006KT P6SM VCSH OVC007
TEMPO 1916/1920 2SM -RA BR


Example: see airport list